createdAt,value
2022-11-02T00:00:34.738Z,14.63
2022-11-02T00:03:03.250Z,13.03
2022-11-02T00:05:33.165Z,13.50
2022-11-02T00:08:01.297Z,12.33
2022-11-02T00:10:29.934Z,14.43
2022-11-02T00:12:58.592Z,13.83
2022-11-02T00:15:29.483Z,13.10
2022-11-02T00:18:02.046Z,13.00
2022-11-02T00:20:30.515Z,15.23
2022-11-02T00:23:03.313Z,13.97
2022-11-02T00:25:31.907Z,14.47
2022-11-02T00:27:59.905Z,16.17
2022-11-02T00:30:27.933Z,19.77
2022-11-02T00:32:57.183Z,19.30
2022-11-02T00:35:25.280Z,22.17
2022-11-02T00:37:53.403Z,21.77
2022-11-02T00:40:23.068Z,20.87
2022-11-02T00:42:51.262Z,22.63
2022-11-02T00:45:19.377Z,22.10
2022-11-02T00:47:47.496Z,22.97
2022-11-02T00:50:15.681Z,22.53
2022-11-02T00:52:44.557Z,22.33
2022-11-02T00:55:13.090Z,21.90
2022-11-02T00:57:43.056Z,20.43
2022-11-02T01:00:14.803Z,20.10
2022-11-02T01:02:43.016Z,19.83
2022-11-02T01:05:12.537Z,18.93
2022-11-02T01:07:40.832Z,19.30
2022-11-02T01:10:10.259Z,17.03
2022-11-02T01:12:38.919Z,17.03
2022-11-02T01:15:10.475Z,17.07
2022-11-02T01:17:39.090Z,16.50
2022-11-02T01:20:08.361Z,17.60
2022-11-02T01:22:36.814Z,18.47
2022-11-02T01:25:05.303Z,17.83
2022-11-02T01:27:33.377Z,18.13
2022-11-02T01:30:01.482Z,19.00
2022-11-02T01:32:31.903Z,18.20
2022-11-02T01:34:59.971Z,17.63
2022-11-02T01:37:28.045Z,17.50
2022-11-02T01:39:56.144Z,18.30
2022-11-02T01:42:26.029Z,18.50
2022-11-02T01:44:54.186Z,18.30
2022-11-02T01:47:28.110Z,17.77
2022-11-02T01:50:03.725Z,18.33
2022-11-02T01:52:36.597Z,19.70
2022-11-02T01:55:10.607Z,20.20
2022-11-02T01:57:41.672Z,18.80
2022-11-02T02:00:12.447Z,20.43
2022-11-02T02:02:46.576Z,21.47
2022-11-02T02:05:18.897Z,21.63
2022-11-02T02:07:47.835Z,23.57
2022-11-02T02:10:16.433Z,22.57
2022-11-02T02:12:45.450Z,23.07
2022-11-02T02:15:14.464Z,22.13
2022-11-02T02:17:49.331Z,21.80
2022-11-02T02:20:38.101Z,21.77
2022-11-02T02:24:00.160Z,21.47
2022-11-02T02:26:52.629Z,21.60
2022-11-02T02:29:23.978Z,21.17
2022-11-02T02:31:59.425Z,22.00
2022-11-02T02:34:35.726Z,20.80
2022-11-02T02:37:08.538Z,19.57
2022-11-02T02:39:44.182Z,19.13
2022-11-02T02:42:20.090Z,18.80
2022-11-02T02:44:56.614Z,18.53
2022-11-02T02:47:28.567Z,17.57
2022-11-02T02:50:02.897Z,18.27
2022-11-02T02:52:34.621Z,16.60
2022-11-02T02:55:05.362Z,18.83
2022-11-02T02:57:36.733Z,15.70
2022-11-02T03:00:14.056Z,16.17
2022-11-02T03:02:42.540Z,18.00
2022-11-02T03:05:24.702Z,18.07
2022-11-02T03:07:53.798Z,16.93
2022-11-02T03:10:29.454Z,17.63
2022-11-02T03:13:10.133Z,15.67
2022-11-02T03:15:43.380Z,17.53
2022-11-02T03:18:25.066Z,18.17
2022-11-02T03:21:04.347Z,17.30
2022-11-02T03:23:36.592Z,18.80
2022-11-02T03:26:09.709Z,19.47
2022-11-02T03:29:00.855Z,18.23
2022-11-02T03:31:39.216Z,16.37
2022-11-02T03:34:18.218Z,16.30
2022-11-02T03:36:49.951Z,16.90
2022-11-02T03:39:21.668Z,16.87
2022-11-02T03:41:53.443Z,16.40
2022-11-02T03:44:25.266Z,17.90
2022-11-02T03:46:59.728Z,16.03
2022-11-02T03:49:29.967Z,15.73
2022-11-02T03:52:01.596Z,16.10
2022-11-02T03:54:42.642Z,15.00
2022-11-02T03:57:17.048Z,14.50
2022-11-02T03:59:45.546Z,14.57
2022-11-02T04:02:17.267Z,14.90
2022-11-02T04:04:53.286Z,13.33
2022-11-02T04:07:25.911Z,14.43
2022-11-02T04:09:54.007Z,14.67
2022-11-02T04:12:38.673Z,16.10
2022-11-02T04:18:11.822Z,14.23
2022-11-02T04:20:40.217Z,14.47
2022-11-02T04:23:25.835Z,13.70
2022-11-02T04:25:55.327Z,13.37
2022-11-02T04:28:23.376Z,13.90
2022-11-02T04:30:51.480Z,13.67
2022-11-02T04:33:35.360Z,13.83
2022-11-02T04:36:04.783Z,14.80
2022-11-02T04:38:41.538Z,12.90
2022-11-02T04:41:28.643Z,13.53
2022-11-02T04:43:56.917Z,12.83
2022-11-02T04:46:26.882Z,11.93
2022-11-02T04:48:56.507Z,12.67
2022-11-02T04:51:27.083Z,13.27
2022-11-02T04:53:56.596Z,15.77
2022-11-02T04:56:25.303Z,15.23
2022-11-02T04:58:54.605Z,19.90
2022-11-02T05:01:25.352Z,16.83
2022-11-02T05:06:42.281Z,15.07
2022-11-02T05:09:11.429Z,16.70
2022-11-02T05:11:39.465Z,15.23
2022-11-02T05:14:07.490Z,13.97
2022-11-02T05:16:35.618Z,15.17
2022-11-02T05:19:06.857Z,13.53
2022-11-02T05:21:37.939Z,12.73
2022-11-02T05:24:08.443Z,14.33
2022-11-02T05:26:36.563Z,13.23
2022-11-02T05:29:04.946Z,13.93
2022-11-02T05:31:33.077Z,13.93
2022-11-02T05:34:01.130Z,13.20
2022-11-02T05:36:29.226Z,13.37
2022-11-02T05:38:57.703Z,13.73
2022-11-02T05:41:27.213Z,16.73
2022-11-02T05:43:55.257Z,15.77
2022-11-02T05:46:23.379Z,15.23
2022-11-02T05:48:51.476Z,14.37
2022-11-02T05:51:19.533Z,13.67
2022-11-02T05:53:47.592Z,13.73
2022-11-02T05:56:18.296Z,12.50
2022-11-02T06:01:23.284Z,12.43
2022-11-02T06:03:53.814Z,12.87
2022-11-02T06:06:22.566Z,13.40
2022-11-02T06:08:50.626Z,13.07
2022-11-02T06:11:18.797Z,12.40
2022-11-02T06:13:52.026Z,11.43
2022-11-02T06:16:23.251Z,13.10
2022-11-02T06:18:52.299Z,12.30
2022-11-02T06:21:20.445Z,13.30
2022-11-02T06:23:49.343Z,14.23
2022-11-02T06:26:17.795Z,14.70
2022-11-02T06:28:45.962Z,12.43
2022-11-02T06:31:17.342Z,13.40
2022-11-02T06:33:45.807Z,12.37
2022-11-02T06:36:13.955Z,13.50
2022-11-02T06:38:42.856Z,13.90
2022-11-02T06:41:11.320Z,13.33
2022-11-02T06:43:39.650Z,13.17
2022-11-02T06:46:08.007Z,12.77
2022-11-02T06:48:37.475Z,14.60
2022-11-02T06:51:06.550Z,12.70
2022-11-02T06:53:35.189Z,13.67
2022-11-02T06:56:03.713Z,11.43
2022-11-02T06:58:32.208Z,11.97
2022-11-02T07:01:02.047Z,9.33
2022-11-02T07:03:31.376Z,9.37
2022-11-02T07:06:01.426Z,9.30
2022-11-02T07:08:30.039Z,9.87
2022-11-02T07:10:59.124Z,10.77
2022-11-02T07:13:27.726Z,10.27
2022-11-02T07:15:56.537Z,10.23
2022-11-02T07:18:24.968Z,10.40
2022-11-02T07:20:53.421Z,10.60
2022-11-02T07:23:24.223Z,10.00
2022-11-02T07:25:52.537Z,9.63
2022-11-02T07:28:20.833Z,11.00
2022-11-02T07:30:49.559Z,12.47
2022-11-02T07:33:17.665Z,11.67
2022-11-02T07:35:48.278Z,11.70
2022-11-02T07:38:16.341Z,11.77
2022-11-02T07:40:50.230Z,10.40
2022-11-02T07:43:18.263Z,9.87
2022-11-02T07:45:46.345Z,10.30
2022-11-02T07:48:14.675Z,10.20
2022-11-02T07:50:42.729Z,10.70
2022-11-02T07:53:11.868Z,9.57
2022-11-02T07:55:40.306Z,9.23
2022-11-02T07:58:13.733Z,7.53
2022-11-02T08:00:43.769Z,7.63
2022-11-02T08:03:14.919Z,8.03
2022-11-02T08:05:44.438Z,13.43
2022-11-02T08:08:15.194Z,20.13
2022-11-02T08:10:44.831Z,8.27
2022-11-02T08:13:16.740Z,7.40
2022-11-02T08:15:45.345Z,7.83
2022-11-02T08:18:17.939Z,7.57
2022-11-02T08:20:47.491Z,7.60
2022-11-02T08:23:16.787Z,7.27
2022-11-02T08:25:46.489Z,6.70
2022-11-02T08:28:18.380Z,6.82
2022-11-02T08:30:46.633Z,7.65
2022-11-02T08:33:16.962Z,7.53
2022-11-02T08:35:46.083Z,7.43
2022-11-02T08:38:14.760Z,6.85
2022-11-02T08:40:43.164Z,6.50
2022-11-02T08:43:13.310Z,6.63
2022-11-02T08:48:33.068Z,7.53
2022-11-02T08:51:02.839Z,7.22
2022-11-02T08:53:30.920Z,6.47
2022-11-02T08:55:59.789Z,7.85
2022-11-02T08:58:27.996Z,8.05
2022-11-02T09:00:58.016Z,7.70
2022-11-02T09:03:27.695Z,6.43
2022-11-02T09:05:59.945Z,7.22
2022-11-02T09:08:28.816Z,8.60
2022-11-02T09:11:01.039Z,7.93
2022-11-02T09:13:29.742Z,7.82
2022-11-02T09:16:01.259Z,9.07
2022-11-02T09:18:30.237Z,8.73
2022-11-02T09:20:58.324Z,8.88
2022-11-02T09:23:26.441Z,8.57
2022-11-02T09:25:54.992Z,8.13
2022-11-02T09:28:23.146Z,7.70
2022-11-02T09:30:51.520Z,9.02
2022-11-02T09:33:21.253Z,9.30
2022-11-02T09:35:50.925Z,9.50
2022-11-02T09:38:19.500Z,8.70
2022-11-02T09:40:56.152Z,9.35
2022-11-02T09:43:36.291Z,8.18
2022-11-02T09:46:08.668Z,8.55
2022-11-02T09:48:43.665Z,7.80
2022-11-02T09:51:15.993Z,9.00
2022-11-02T09:53:54.614Z,7.90
2022-11-02T09:56:23.320Z,7.97
2022-11-02T09:58:58.654Z,7.50
2022-11-02T10:01:39.369Z,7.38
2022-11-02T10:04:31.193Z,7.82
2022-11-02T10:07:06.881Z,6.68
2022-11-02T10:09:44.717Z,7.03
2022-11-02T10:12:17.104Z,6.55
2022-11-02T10:14:54.421Z,6.57
2022-11-02T10:17:26.761Z,7.00
2022-11-02T10:19:57.852Z,6.45
2022-11-02T10:22:30.039Z,6.38
2022-11-02T10:25:02.087Z,7.32
2022-11-02T10:27:36.046Z,6.75
2022-11-02T10:30:07.016Z,6.80
2022-11-02T10:32:37.886Z,7.25
2022-11-02T10:35:33.852Z,6.72
2022-11-02T10:38:20.231Z,5.90
2022-11-02T10:41:07.893Z,6.32
2022-11-02T10:43:52.127Z,4.90
2022-11-02T10:46:38.330Z,5.22
2022-11-02T10:49:14.468Z,5.13
2022-11-02T10:51:44.258Z,4.88
2022-11-02T10:54:17.709Z,4.78
2022-11-02T10:56:50.540Z,5.07
2022-11-02T10:59:20.286Z,3.83
2022-11-02T11:02:04.577Z,4.65
2022-11-02T11:04:34.137Z,3.90
2022-11-02T11:07:08.507Z,4.60
2022-11-02T11:09:46.456Z,3.95
2022-11-02T11:12:21.093Z,4.43
2022-11-02T11:20:36.053Z,3.85
2022-11-02T11:23:32.333Z,4.28
2022-11-02T11:26:02.843Z,3.80
2022-11-02T11:28:33.556Z,3.95
2022-11-02T11:31:08.883Z,3.28
2022-11-02T11:33:44.760Z,3.63
2022-11-02T11:36:21.687Z,4.00
2022-11-02T11:38:53.834Z,4.07
2022-11-02T11:41:22.271Z,3.67
2022-11-02T11:43:52.477Z,3.63
2022-11-02T11:46:20.624Z,3.83
2022-11-02T11:48:51.764Z,3.40
2022-11-02T11:51:29.678Z,3.58
2022-11-02T11:54:28.079Z,4.22
2022-11-02T11:56:58.355Z,3.80
2022-11-02T11:59:32.483Z,3.85
2022-11-02T12:02:03.879Z,4.10
2022-11-02T12:04:36.298Z,3.97
2022-11-02T12:07:36.379Z,4.45
2022-11-02T12:10:19.903Z,4.25
2022-11-02T12:13:00.651Z,3.63
2022-11-02T12:15:41.268Z,4.22
2022-11-02T12:18:35.231Z,4.78
2022-11-02T12:21:15.341Z,4.03
2022-11-02T12:24:03.119Z,4.30
2022-11-02T12:26:48.405Z,4.22
2022-11-02T12:29:35.257Z,4.28
2022-11-02T12:32:10.192Z,3.70
2022-11-02T12:35:23.173Z,3.35
2022-11-02T12:38:02.773Z,3.50
2022-11-02T12:40:43.348Z,3.10
2022-11-02T12:43:32.274Z,3.42
2022-11-02T12:46:05.250Z,3.38
2022-11-02T12:48:46.241Z,3.35
2022-11-02T12:51:19.479Z,3.30
2022-11-02T12:53:50.495Z,3.30
2022-11-02T12:56:24.689Z,4.45
2022-11-02T12:58:54.491Z,3.28
2022-11-02T13:01:29.942Z,2.85
2022-11-02T13:04:04.843Z,2.97
2022-11-02T13:06:38.374Z,3.10
2022-11-02T13:09:11.065Z,2.15
2022-11-02T13:11:42.859Z,2.83
2022-11-02T13:14:15.994Z,2.30
2022-11-02T13:16:50.230Z,2.92
2022-11-02T13:19:23.599Z,3.05
2022-11-02T13:21:55.461Z,2.60
2022-11-02T13:24:31.766Z,3.05
2022-11-02T13:27:14.130Z,2.95
2022-11-02T13:29:53.061Z,3.13
2022-11-02T13:32:33.573Z,2.67
2022-11-02T13:35:07.841Z,2.78
2022-11-02T13:37:39.517Z,2.80
2022-11-02T13:40:21.647Z,2.65
2022-11-02T13:43:14.699Z,3.05
2022-11-02T13:45:55.445Z,2.80
2022-11-02T13:48:52.616Z,2.38
2022-11-02T13:51:27.662Z,2.88
2022-11-02T13:54:02.182Z,2.50
2022-11-02T13:56:31.491Z,3.10
2022-11-02T13:59:03.374Z,3.25
2022-11-02T14:01:37.199Z,2.67
2022-11-02T14:04:09.057Z,3.05
2022-11-02T14:06:49.044Z,2.90
2022-11-02T14:09:30.840Z,2.60
2022-11-02T14:12:41.808Z,3.20
2022-11-02T14:15:42.248Z,3.50
2022-11-02T14:18:33.726Z,2.72
2022-11-02T14:21:47.557Z,3.03
2022-11-02T14:24:59.795Z,3.00
2022-11-02T14:27:32.032Z,3.08
2022-11-02T14:30:00.457Z,2.67
2022-11-02T14:32:47.373Z,2.83
2022-11-02T14:35:32.242Z,3.00
2022-11-02T14:38:22.733Z,3.67
2022-11-02T14:41:00.120Z,3.75
2022-11-02T14:43:49.798Z,3.42
2022-11-02T14:46:34.463Z,3.90
2022-11-02T14:49:04.852Z,3.53
2022-11-02T14:51:37.983Z,3.33
2022-11-02T14:54:16.038Z,4.25
2022-11-02T14:56:54.748Z,3.35
2022-11-02T14:59:27.618Z,3.30
2022-11-02T15:01:58.987Z,3.30
2022-11-02T15:04:29.598Z,3.33
2022-11-02T15:07:02.045Z,4.10
2022-11-02T15:09:53.116Z,4.05
2022-11-02T15:12:37.709Z,3.25
2022-11-02T15:15:38.656Z,4.60
2022-11-02T15:18:25.432Z,2.90
2022-11-02T15:21:27.199Z,3.80
2022-11-02T15:24:18.040Z,3.83
2022-11-02T15:26:50.953Z,4.20
2022-11-02T15:29:34.579Z,4.55
2022-11-02T15:32:04.975Z,4.40
2022-11-02T15:34:37.786Z,4.05
2022-11-02T15:37:06.404Z,4.45
2022-11-02T15:39:36.717Z,4.80
2022-11-02T15:42:13.588Z,4.95
2022-11-02T15:45:27.001Z,5.18
2022-11-02T15:48:16.384Z,5.10
2022-11-02T15:50:55.771Z,5.30
2022-11-02T15:53:38.369Z,4.78
2022-11-02T15:56:28.694Z,5.00
2022-11-02T15:59:15.984Z,5.20
2022-11-02T16:01:44.252Z,4.50
2022-11-02T16:04:22.112Z,4.93
2022-11-02T16:06:50.567Z,5.10
2022-11-02T16:09:33.248Z,5.88
2022-11-02T16:12:13.119Z,5.45
2022-11-02T16:14:41.913Z,5.07
2022-11-02T16:17:20.956Z,5.78
2022-11-02T16:19:49.600Z,5.40
2022-11-02T16:22:28.079Z,5.50
2022-11-02T16:24:56.463Z,5.70
2022-11-02T16:27:26.418Z,6.18
2022-11-02T16:29:54.502Z,5.57
2022-11-02T16:32:22.647Z,8.32
2022-11-02T16:34:51.201Z,5.22
2022-11-02T16:37:21.610Z,5.90
2022-11-02T16:39:50.314Z,6.38
2022-11-02T16:42:22.998Z,7.07
2022-11-02T16:44:58.032Z,12.55
2022-11-02T16:47:41.481Z,10.25
2022-11-02T16:50:25.308Z,6.50
2022-11-02T16:52:58.955Z,4.90
2022-11-02T16:55:41.782Z,6.07
2022-11-02T16:58:20.411Z,6.63
2022-11-02T17:00:59.652Z,5.82
2022-11-02T17:03:32.478Z,5.15
2022-11-02T17:06:03.398Z,5.63
2022-11-02T17:08:34.541Z,7.00
2022-11-02T17:11:06.375Z,7.45
2022-11-02T17:13:37.793Z,7.75
2022-11-02T17:16:11.791Z,7.03
2022-11-02T17:18:40.127Z,7.90
2022-11-02T17:21:32.387Z,7.63
2022-11-02T17:24:00.933Z,8.25
2022-11-02T17:26:35.317Z,7.22
2022-11-02T17:29:05.069Z,7.05
2022-11-02T17:31:36.599Z,12.02
2022-11-02T17:34:11.566Z,10.80
2022-11-02T17:36:43.938Z,6.50
2022-11-02T17:39:14.891Z,6.65
2022-11-02T17:42:01.046Z,6.05
2022-11-02T17:44:29.228Z,5.70
2022-11-02T17:46:58.720Z,6.68
2022-11-02T17:49:26.779Z,6.35
2022-11-02T17:51:56.706Z,6.55
2022-11-02T17:54:24.875Z,4.70
2022-11-02T17:56:54.240Z,5.75
2022-11-02T17:59:22.288Z,5.63
2022-11-02T18:01:50.445Z,5.57
2022-11-02T18:04:20.118Z,6.15
2022-11-02T18:06:48.127Z,6.53
2022-11-02T18:09:19.433Z,6.85
2022-11-02T18:11:49.146Z,6.43
2022-11-02T18:14:18.146Z,7.00
2022-11-02T18:16:48.102Z,5.78
2022-11-02T18:19:17.171Z,6.35
2022-11-02T18:21:47.149Z,7.63
2022-11-02T18:24:15.448Z,5.78
2022-11-02T18:26:45.872Z,6.13
2022-11-02T18:29:15.183Z,5.50
2022-11-02T18:31:43.419Z,5.40
2022-11-02T18:34:11.693Z,5.93
2022-11-02T18:36:41.038Z,5.22
2022-11-02T18:39:10.613Z,6.10
2022-11-02T18:41:40.440Z,5.43
2022-11-02T18:44:14.898Z,5.85
2022-11-02T18:46:43.489Z,6.50
2022-11-02T18:49:11.570Z,6.20
2022-11-02T18:51:43.171Z,6.30
2022-11-02T18:54:13.274Z,6.78
2022-11-02T18:56:41.655Z,5.85
2022-11-02T18:59:09.808Z,5.82
2022-11-02T19:01:38.371Z,5.63
2022-11-02T19:04:06.775Z,5.75
2022-11-02T19:06:52.965Z,6.03
2022-11-02T19:09:26.968Z,5.35
2022-11-02T19:12:01.992Z,5.75
2022-11-02T19:14:32.094Z,5.30
2022-11-02T19:17:00.322Z,5.38
2022-11-02T19:19:28.613Z,5.32
2022-11-02T19:21:56.734Z,4.65
2022-11-02T19:24:26.645Z,5.47
2022-11-02T19:26:55.124Z,10.30
2022-11-02T19:29:23.168Z,6.63
2022-11-02T19:31:51.338Z,5.22
2022-11-02T19:34:29.213Z,4.55
2022-11-02T19:36:57.700Z,4.60
2022-11-02T19:39:28.165Z,5.05
2022-11-02T19:41:56.286Z,4.97
2022-11-02T19:44:24.484Z,5.57
2022-11-02T19:46:53.406Z,5.32
2022-11-02T19:49:22.214Z,5.50
2022-11-02T19:51:51.947Z,5.43
2022-11-02T19:54:20.782Z,5.22
2022-11-02T19:56:50.461Z,4.90
2022-11-02T19:59:19.985Z,5.47
2022-11-02T20:01:50.876Z,5.53
2022-11-02T20:04:19.423Z,4.82
2022-11-02T20:06:47.446Z,5.38
2022-11-02T20:09:17.861Z,5.38
2022-11-02T20:11:47.036Z,5.40
2022-11-02T20:14:18.695Z,5.50
2022-11-02T20:16:58.615Z,5.97
2022-11-02T20:19:36.179Z,5.65
2022-11-02T20:22:04.438Z,5.32
2022-11-02T20:24:35.740Z,5.55
2022-11-02T20:27:06.745Z,5.10
2022-11-02T20:29:36.446Z,4.65
2022-11-02T20:32:10.191Z,4.90
2022-11-02T20:34:38.347Z,4.60
2022-11-02T20:37:07.506Z,4.63
2022-11-02T20:39:35.694Z,4.50
2022-11-02T20:42:03.775Z,4.45
2022-11-02T20:44:32.320Z,4.32
2022-11-02T20:47:02.039Z,4.50
2022-11-02T20:49:49.421Z,4.57
2022-11-02T20:52:18.912Z,4.25
2022-11-02T20:54:47.348Z,3.70
2022-11-02T20:57:15.432Z,4.35
2022-11-02T20:59:43.596Z,3.90
2022-11-02T21:02:13.434Z,4.72
2022-11-02T21:04:41.717Z,4.70
2022-11-02T21:07:09.941Z,4.75
2022-11-02T21:09:37.983Z,4.43
2022-11-02T21:12:23.944Z,3.97
2022-11-02T21:14:52.010Z,4.90
2022-11-02T21:17:21.482Z,4.80
2022-11-02T21:19:54.214Z,4.35
2022-11-02T21:22:26.230Z,4.13
2022-11-02T21:24:54.414Z,4.93
2022-11-02T21:27:23.123Z,5.03
2022-11-02T21:29:51.094Z,4.78
2022-11-02T21:32:19.219Z,4.45
2022-11-02T21:34:48.664Z,4.68
2022-11-02T21:37:16.696Z,5.03
2022-11-02T21:39:44.876Z,4.25
2022-11-02T21:42:12.956Z,4.78
2022-11-02T21:44:41.005Z,4.88
2022-11-02T21:47:09.434Z,4.70
2022-11-02T21:49:37.602Z,4.82
2022-11-02T21:52:07.074Z,4.40
2022-11-02T21:54:35.188Z,4.45
2022-11-02T21:57:03.299Z,4.80
2022-11-02T21:59:31.371Z,5.20
2022-11-02T22:01:59.614Z,4.72
2022-11-02T22:04:31.154Z,4.93
2022-11-02T22:07:00.254Z,4.75
2022-11-02T22:09:30.191Z,4.70
2022-11-02T22:12:16.158Z,4.90
2022-11-02T22:14:45.206Z,4.63
2022-11-02T22:17:43.385Z,4.10
2022-11-02T22:20:04.263Z,3.58
2022-11-02T22:22:32.330Z,3.90
2022-11-02T22:25:01.788Z,4.60
2022-11-02T22:27:30.017Z,3.58
2022-11-02T22:29:58.066Z,4.10
2022-11-02T22:32:26.156Z,4.63
2022-11-02T22:34:54.222Z,4.30
2022-11-02T22:37:45.064Z,4.05
2022-11-02T22:40:14.736Z,3.90
2022-11-02T22:42:42.814Z,4.20
2022-11-02T22:45:12.052Z,3.60
2022-11-02T22:47:40.212Z,4.35
2022-11-02T22:50:09.138Z,3.92
2022-11-02T22:52:37.204Z,4.53
2022-11-02T22:55:05.729Z,3.67
2022-11-02T22:57:35.167Z,3.75
2022-11-02T23:00:03.319Z,3.63
2022-11-02T23:02:31.398Z,3.55
2022-11-02T23:04:59.389Z,3.50
2022-11-02T23:07:27.414Z,4.30
2022-11-02T23:09:55.443Z,3.55
2022-11-02T23:12:22.447Z,3.63
2022-11-02T23:14:51.934Z,3.80
2022-11-02T23:17:19.928Z,3.65
2022-11-02T23:19:47.113Z,3.60
2022-11-02T23:22:44.126Z,3.40
2022-11-02T23:25:12.584Z,3.65
2022-11-02T23:27:56.960Z,3.28
2022-11-02T23:30:45.132Z,3.95
2022-11-02T23:33:13.435Z,3.80
2022-11-02T23:35:58.748Z,3.60
2022-11-02T23:38:47.407Z,3.38
2022-11-02T23:41:15.636Z,4.00
2022-11-02T23:43:43.709Z,3.67
2022-11-02T23:46:13.230Z,3.28
2022-11-02T23:48:42.846Z,3.10
2022-11-02T23:51:29.131Z,3.90
2022-11-02T23:54:22.798Z,3.55
2022-11-02T23:56:51.134Z,3.70
2022-11-02T23:59:19.755Z,3.65
